YHF weather

Hearst René Fontaine Municipal Airport
Hearst, Ontario, Canada

Public forecast

Using degrees Celsius for public forecast. Weather courtesy of forecast.io.

Closest aviation weather report (METAR) to Hearst René Fontaine Municipal Airport

Closest report is Kapuskasing Airport, 50.8 nm (94.0 km) ESE. Retrieved 2020/05/30 09:15 UTC (17 minutes ago):

CYYU 300915Z 34006KT 15SM FEW012 BKN027 BKN040 BKN095 03/02 A3002 RMK SF2SC3SC1AC1 SLP176

Closest aviation forecast (TAF) to Hearst René Fontaine Municipal Airport

Closest forecast is Kapuskasing Airport, 50.8 nm (94.0 km) ESE. Retrieved 2020/05/30 08:33 UTC (59 minutes ago):

TAF CYYU 300730Z 3008/3020 34010KT 2SM -RA BR OVC005 TEMPO 3008/3011 6SM BR OVC010 FM301100 33012KT P6SM OVC020 TEMPO 3011/3020 BKN030 RMK NXT FCST BY 301400Z